createdAt,value
2023-02-17T00:04:28.735Z,22.52
2023-02-17T00:14:31.431Z,25.75
2023-02-17T00:24:39.484Z,21.48
2023-02-17T00:34:42.154Z,20.00
2023-02-17T00:44:46.142Z,18.30
2023-02-17T00:54:48.753Z,16.65
2023-02-17T01:04:52.855Z,20.90
2023-02-17T01:14:55.489Z,20.23
2023-02-17T01:24:59.427Z,20.15
2023-02-17T01:35:02.128Z,19.17
2023-02-17T01:45:35.700Z,18.73
2023-02-17T01:55:40.602Z,21.83
2023-02-17T02:05:44.767Z,24.20
2023-02-17T02:15:53.568Z,26.95
2023-02-17T02:26:35.613Z,29.65
2023-02-17T02:36:44.746Z,29.27
2023-02-17T02:46:56.725Z,38.53
2023-02-17T02:57:34.437Z,40.42
2023-02-17T03:07:41.749Z,42.20
2023-02-17T03:17:45.697Z,39.55
2023-02-17T03:27:48.413Z,42.33
2023-02-17T03:37:52.345Z,43.17
2023-02-17T03:47:54.947Z,32.25
2023-02-17T03:57:58.901Z,31.60
2023-02-17T04:08:01.512Z,37.15
2023-02-17T04:18:05.518Z,39.90
2023-02-17T04:28:08.645Z,38.83
2023-02-17T04:38:13.118Z,46.58
2023-02-17T04:48:15.725Z,36.85
2023-02-17T04:58:20.167Z,33.40
2023-02-17T05:08:23.051Z,34.25
2023-02-17T05:18:27.018Z,35.45
2023-02-17T05:28:29.644Z,24.85
2023-02-17T05:38:33.689Z,32.45
2023-02-17T05:48:37.480Z,27.25
2023-02-17T05:58:41.401Z,30.98
2023-02-17T06:08:44.069Z,31.88
2023-02-17T06:18:48.069Z,29.90
2023-02-17T06:28:50.823Z,33.97
2023-02-17T06:38:54.776Z,30.27
2023-02-17T06:48:57.509Z,24.20
2023-02-17T06:59:02.373Z,27.35
2023-02-17T07:09:04.972Z,29.42
2023-02-17T07:19:09.248Z,36.83
2023-02-17T07:29:12.304Z,31.75
2023-02-17T07:39:16.250Z,31.60
2023-02-17T07:49:18.866Z,36.80
2023-02-17T07:59:22.902Z,41.20
2023-02-17T08:09:43.099Z,42.08
2023-02-17T08:19:49.058Z,32.95
2023-02-17T08:29:52.869Z,39.80
2023-02-17T08:39:58.976Z,37.85
2023-02-17T08:50:01.645Z,35.63
2023-02-17T09:00:09.643Z,32.85
2023-02-17T09:10:13.443Z,28.13
2023-02-17T09:20:24.795Z,27.90
2023-02-17T09:30:28.546Z,31.95
2023-02-17T09:40:42.988Z,22.83
2023-02-17T09:50:51.368Z,22.55
2023-02-17T10:00:58.155Z,19.52
2023-02-17T10:11:04.761Z,17.00
2023-02-17T10:21:15.580Z,20.20
2023-02-17T10:31:38.916Z,13.23
2023-02-17T10:41:44.791Z,8.85
2023-02-17T10:51:47.449Z,18.55
2023-02-17T11:01:52.390Z,14.45
2023-02-17T11:12:01.280Z,10.10
2023-02-17T11:22:07.657Z,10.13
2023-02-17T11:32:13.748Z,11.80
2023-02-17T11:42:21.877Z,8.07
2023-02-17T11:52:39.485Z,7.15
2023-02-17T12:03:15.047Z,10.50
2023-02-17T12:13:30.268Z,12.60
2023-02-17T12:23:55.160Z,9.15
2023-02-17T12:34:03.714Z,7.43
2023-02-17T12:44:13.064Z,10.85
2023-02-17T12:54:21.690Z,6.30
2023-02-17T13:04:26.464Z,6.93
2023-02-17T13:14:40.596Z,9.55
2023-02-17T13:24:53.922Z,6.40
2023-02-17T13:35:05.669Z,8.30
2023-02-17T13:45:28.200Z,6.10
2023-02-17T13:55:32.214Z,5.47
2023-02-17T14:05:41.406Z,4.55
2023-02-17T14:15:54.414Z,9.10
2023-02-17T14:25:57.092Z,6.00
2023-02-17T14:36:03.941Z,6.78
2023-02-17T14:46:06.985Z,3.65
2023-02-17T14:56:18.618Z,5.95
2023-02-17T15:06:27.088Z,11.88
2023-02-17T15:16:32.603Z,11.15
2023-02-17T15:26:35.237Z,11.73
2023-02-17T15:36:39.237Z,12.32
2023-02-17T15:46:42.130Z,6.88
2023-02-17T15:56:49.945Z,9.02
2023-02-17T16:06:52.574Z,9.32
2023-02-17T16:16:56.714Z,8.07
2023-02-17T16:26:59.443Z,7.75
2023-02-17T16:37:11.474Z,13.93
2023-02-17T16:47:20.782Z,11.75
2023-02-17T16:57:26.325Z,7.63
2023-02-17T17:07:30.378Z,14.38
2023-02-17T17:17:39.737Z,12.43
2023-02-17T17:27:42.616Z,14.13
2023-02-17T17:37:46.759Z,10.15
2023-02-17T17:47:49.379Z,11.27
2023-02-17T17:57:53.636Z,11.55
2023-02-17T18:07:56.532Z,8.30
2023-02-17T18:18:00.524Z,8.75
2023-02-17T18:28:03.183Z,17.70
2023-02-17T18:38:07.459Z,12.23
2023-02-17T18:48:10.077Z,10.45
2023-02-17T18:58:14.148Z,17.10
2023-02-17T19:08:16.724Z,9.25
2023-02-17T19:18:20.673Z,17.50
2023-02-17T19:28:23.524Z,10.60
2023-02-17T19:38:29.532Z,10.75
2023-02-17T19:48:32.985Z,6.03
2023-02-17T19:58:37.197Z,11.68
2023-02-17T20:08:40.369Z,12.52
2023-02-17T20:18:46.194Z,7.03
2023-02-17T20:28:49.461Z,10.50
2023-02-17T20:38:53.529Z,12.82
2023-02-17T20:48:56.591Z,10.38
2023-02-17T20:59:00.928Z,13.90
2023-02-17T21:09:06.776Z,10.20
2023-02-17T21:19:10.732Z,15.52
2023-02-17T21:29:13.333Z,13.13
2023-02-17T21:39:17.278Z,6.72
2023-02-17T21:49:20.031Z,12.43
2023-02-17T21:59:24.036Z,25.33
2023-02-17T22:09:26.673Z,25.02
2023-02-17T22:19:31.629Z,9.70
2023-02-17T22:29:34.325Z,10.38
2023-02-17T22:39:38.278Z,11.60
2023-02-17T22:49:41.391Z,5.43
2023-02-17T22:59:45.394Z,8.00
2023-02-17T23:09:48.072Z,7.28
2023-02-17T23:19:52.026Z,20.63
2023-02-17T23:29:54.914Z,11.57
2023-02-17T23:39:58.874Z,9.25
2023-02-17T23:50:01.681Z,17.35
